createdAt,value
2018-04-15T00:00:10.482Z,10.10
2018-04-15T00:02:38.490Z,10.20
2018-04-15T00:05:06.496Z,10.10
2018-04-15T00:07:34.568Z,10.00
2018-04-15T00:10:02.623Z,10.10
2018-04-15T00:12:30.712Z,10.00
2018-04-15T00:14:59.496Z,9.90
2018-04-15T00:17:27.527Z,9.90
2018-04-15T00:19:55.575Z,9.90
2018-04-15T00:22:23.624Z,9.90
2018-04-15T00:24:52.452Z,9.80
2018-04-15T00:27:20.535Z,9.80
2018-04-15T00:29:48.580Z,10.10
2018-04-15T00:32:16.624Z,10.40
2018-04-15T00:34:44.679Z,10.60
2018-04-15T00:37:12.827Z,10.60
2018-04-15T00:39:40.887Z,10.70
2018-04-15T00:42:08.928Z,10.70
2018-04-15T00:44:37.606Z,10.70
2018-04-15T00:47:06.423Z,10.90
2018-04-15T00:49:34.467Z,10.80
2018-04-15T00:52:04.047Z,10.60
2018-04-15T00:54:32.079Z,10.60
2018-04-15T00:57:00.152Z,10.20
2018-04-15T00:59:28.195Z,10.10
2018-04-15T01:01:56.255Z,10.00
2018-04-15T01:04:25.071Z,9.80
2018-04-15T01:06:53.095Z,9.80
2018-04-15T01:09:21.151Z,9.70
2018-04-15T01:11:49.234Z,9.60
2018-04-15T01:14:17.303Z,9.70
2018-04-15T01:16:45.351Z,9.60
2018-04-15T01:19:13.392Z,9.50
2018-04-15T01:21:41.468Z,9.30
2018-04-15T01:24:09.484Z,9.40
2018-04-15T01:26:37.543Z,9.50
2018-04-15T01:29:05.603Z,9.30
2018-04-15T01:31:33.632Z,9.40
2018-04-15T01:34:01.676Z,9.50
2018-04-15T01:36:29.699Z,9.40
2018-04-15T01:38:57.749Z,9.50
2018-04-15T01:41:25.779Z,9.40
2018-04-15T01:43:53.824Z,9.40
2018-04-15T01:46:21.928Z,9.40
2018-04-15T01:48:49.955Z,9.20
2018-04-15T01:51:18.780Z,9.20
2018-04-15T01:53:46.819Z,9.10
2018-04-15T01:56:14.869Z,9.30
2018-04-15T01:58:42.930Z,9.20
2018-04-15T02:01:11.732Z,9.30
2018-04-15T02:03:39.782Z,9.20
2018-04-15T02:06:07.813Z,9.20
2018-04-15T02:08:35.864Z,9.20
2018-04-15T02:11:04.679Z,9.30
2018-04-15T02:13:32.704Z,9.20
2018-04-15T02:16:01.532Z,9.30
2018-04-15T02:18:29.565Z,9.20
2018-04-15T02:20:57.612Z,9.20
2018-04-15T02:23:25.655Z,9.20
2018-04-15T02:25:53.691Z,9.20
2018-04-15T02:28:22.512Z,9.20
2018-04-15T02:30:50.555Z,9.10
2018-04-15T02:33:20.107Z,9.10
2018-04-15T02:35:48.160Z,9.10
2018-04-15T02:38:16.197Z,9.10
2018-04-15T02:40:44.248Z,9.20
2018-04-15T02:43:13.041Z,9.00
2018-04-15T02:45:41.868Z,9.00
2018-04-15T02:48:10.003Z,9.00
2018-04-15T02:50:38.019Z,9.10
2018-04-15T02:53:06.844Z,8.90
2018-04-15T02:55:34.880Z,8.80
2018-04-15T02:58:02.926Z,8.90
2018-04-15T03:00:30.977Z,9.00
2018-04-15T03:02:59.011Z,9.00
2018-04-15T03:05:27.059Z,8.90
2018-04-15T03:07:55.097Z,8.80
2018-04-15T03:10:23.179Z,8.80
2018-04-15T03:12:51.236Z,8.60
2018-04-15T03:15:19.263Z,8.50
2018-04-15T03:17:48.085Z,8.40
2018-04-15T03:20:16.888Z,8.20
2018-04-15T03:22:44.932Z,8.10
2018-04-15T03:25:12.982Z,8.10
2018-04-15T03:27:41.003Z,8.00
2018-04-15T03:30:09.832Z,7.70
2018-04-15T03:32:37.860Z,7.70
2018-04-15T03:35:05.913Z,7.70
2018-04-15T03:37:33.942Z,7.40
2018-04-15T03:40:03.067Z,7.40
2018-04-15T03:42:31.116Z,7.30
2018-04-15T03:44:59.150Z,7.30
2018-04-15T03:47:27.980Z,7.20
2018-04-15T03:49:55.999Z,7.20
2018-04-15T03:52:24.048Z,7.20
2018-04-15T03:54:52.071Z,7.40
2018-04-15T03:57:20.123Z,7.40
2018-04-15T03:59:48.179Z,7.30
2018-04-15T04:02:16.976Z,7.10
2018-04-15T04:04:45.796Z,7.20
2018-04-15T04:07:13.840Z,7.10
2018-04-15T04:09:41.907Z,7.20
2018-04-15T04:12:10.060Z,7.10
2018-04-15T04:14:38.099Z,7.10
2018-04-15T04:17:06.927Z,7.00
2018-04-15T04:19:46.815Z,6.90
2018-04-15T04:22:26.899Z,6.90
2018-04-15T04:27:54.935Z,6.80
2018-04-15T04:30:22.991Z,6.90
2018-04-15T04:32:51.026Z,6.90
2018-04-15T04:35:19.819Z,6.90
2018-04-15T04:37:48.652Z,6.90
2018-04-15T04:40:16.679Z,6.80
2018-04-15T04:42:44.727Z,6.90
2018-04-15T04:45:12.787Z,6.90
2018-04-15T04:47:41.584Z,6.70
2018-04-15T04:50:10.396Z,6.60
2018-04-15T04:52:38.435Z,6.60
2018-04-15T04:55:06.484Z,6.60
2018-04-15T04:57:34.548Z,6.60
2018-04-15T05:00:03.331Z,6.70
2018-04-15T05:02:32.155Z,6.90
2018-04-15T05:05:00.185Z,6.90
2018-04-15T05:07:28.388Z,7.00
2018-04-15T05:09:56.431Z,7.20
2018-04-15T05:12:24.458Z,7.20
2018-04-15T05:14:52.512Z,7.20
2018-04-15T05:17:20.544Z,7.10
2018-04-15T05:19:49.340Z,7.20
2018-04-15T05:22:17.389Z,7.20
2018-04-15T05:24:45.428Z,7.20
2018-04-15T05:27:14.234Z,7.30
2018-04-15T05:29:42.296Z,7.30
2018-04-15T05:32:11.128Z,7.50
2018-04-15T05:34:39.191Z,7.50
2018-04-15T05:37:07.231Z,7.60
2018-04-15T05:39:35.280Z,7.60
2018-04-15T05:42:03.340Z,7.80
2018-04-15T05:44:32.131Z,7.80
2018-04-15T05:47:00.939Z,7.90
2018-04-15T05:49:29.743Z,8.00
2018-04-15T05:51:58.556Z,8.10
2018-04-15T05:54:26.617Z,8.00
2018-04-15T05:56:55.423Z,8.40
2018-04-15T05:59:24.228Z,8.50
2018-04-15T06:01:53.027Z,8.60
2018-04-15T06:04:21.842Z,8.70
2018-04-15T06:06:49.882Z,8.70
2018-04-15T06:09:17.916Z,8.80
2018-04-15T06:11:45.960Z,8.90
2018-04-15T06:14:14.003Z,9.00
2018-04-15T06:16:42.059Z,9.00
2018-04-15T06:19:10.113Z,9.00
2018-04-15T06:21:38.151Z,9.20
2018-04-15T06:24:06.196Z,9.30
2018-04-15T06:26:34.990Z,9.50
2018-04-15T06:29:03.048Z,9.40
2018-04-15T06:31:31.104Z,9.50
2018-04-15T06:33:59.135Z,9.70
2018-04-15T06:36:27.175Z,9.70
2018-04-15T06:38:55.240Z,9.70
2018-04-15T06:41:23.287Z,9.80
2018-04-15T06:43:51.336Z,9.80
2018-04-15T06:46:19.359Z,8.50
2018-04-15T06:48:48.185Z,9.90
2018-04-15T06:51:16.988Z,10.00
2018-04-15T06:53:45.047Z,10.00
2018-04-15T06:56:13.874Z,10.10
2018-04-15T06:58:41.912Z,10.10
2018-04-15T07:01:11.980Z,10.10
2018-04-15T07:03:40.784Z,10.30
2018-04-15T07:06:08.853Z,10.20
2018-04-15T07:08:37.675Z,10.70
2018-04-15T07:11:05.733Z,10.60
2018-04-15T07:13:34.603Z,11.10
2018-04-15T07:16:02.619Z,11.00
2018-04-15T07:18:31.444Z,11.30
2018-04-15T07:21:00.269Z,11.40
2018-04-15T07:23:29.074Z,11.60
2018-04-15T07:25:57.129Z,11.60
2018-04-15T07:28:25.928Z,11.90
2018-04-15T07:30:54.011Z,11.80
2018-04-15T07:33:22.071Z,11.90
2018-04-15T07:35:50.108Z,12.10
2018-04-15T07:38:18.169Z,12.40
2018-04-15T07:40:46.968Z,13.30
2018-04-15T07:43:15.850Z,13.70
2018-04-15T07:45:43.899Z,13.60
2018-04-15T07:48:11.943Z,14.00
2018-04-15T07:50:40.019Z,13.90
2018-04-15T07:53:08.821Z,13.90
2018-04-15T07:55:37.645Z,13.70
2018-04-15T07:58:05.705Z,13.70
2018-04-15T08:00:34.547Z,13.40
2018-04-15T08:03:02.588Z,13.30
2018-04-15T08:05:31.399Z,12.90
2018-04-15T08:07:59.460Z,12.90
2018-04-15T08:10:27.496Z,12.90
2018-04-15T08:12:55.552Z,12.90
2018-04-15T08:15:23.613Z,13.10
2018-04-15T08:17:51.671Z,13.40
2018-04-15T08:20:19.740Z,13.30
2018-04-15T08:22:47.783Z,13.20
2018-04-15T08:25:16.652Z,13.10
2018-04-15T08:27:44.671Z,13.00
2018-04-15T08:30:13.490Z,13.80
2018-04-15T08:32:41.637Z,13.70
2018-04-15T08:35:10.608Z,14.40
2018-04-15T08:37:38.774Z,14.40
2018-04-15T08:40:06.807Z,14.60
2018-04-15T08:42:34.867Z,14.80
2018-04-15T08:45:02.921Z,14.90
2018-04-15T08:47:31.311Z,14.90
2018-04-15T08:49:59.505Z,15.00
2018-04-15T08:52:27.527Z,15.00
2018-04-15T08:54:56.347Z,15.40
2018-04-15T08:57:25.162Z,15.40
2018-04-15T08:59:53.202Z,15.30
2018-04-15T09:02:21.251Z,15.50
2018-04-15T09:04:49.292Z,15.60
2018-04-15T09:07:17.343Z,15.80
2018-04-15T09:09:45.448Z,15.90
2018-04-15T09:12:13.475Z,16.10
2018-04-15T09:14:42.279Z,16.60
2018-04-15T09:17:10.352Z,16.50
2018-04-15T09:19:38.420Z,16.70
2018-04-15T09:22:07.227Z,16.70
2018-04-15T09:24:35.270Z,16.70
2018-04-15T09:27:03.317Z,16.70
2018-04-15T09:29:31.390Z,16.90
2018-04-15T09:31:59.462Z,17.20
2018-04-15T09:34:28.271Z,17.40
2018-04-15T09:36:58.320Z,17.70
2018-04-15T09:39:26.352Z,17.60
2018-04-15T09:41:54.403Z,17.80
2018-04-15T09:44:22.469Z,17.80
2018-04-15T09:46:50.512Z,17.80
2018-04-15T09:49:20.079Z,17.60
2018-04-15T09:51:48.132Z,17.60
2018-04-15T09:54:16.196Z,17.60
2018-04-15T09:56:44.261Z,17.40
2018-04-15T09:59:12.323Z,17.10
2018-04-15T10:01:40.376Z,17.00
2018-04-15T10:04:09.200Z,16.50
2018-04-15T10:06:37.263Z,16.50
2018-04-15T10:09:06.096Z,16.60
2018-04-15T10:11:34.138Z,16.50
2018-04-15T10:14:02.204Z,16.60
2018-04-15T10:16:30.240Z,16.60
2018-04-15T10:18:58.297Z,16.60
2018-04-15T10:21:27.119Z,16.60
2018-04-15T10:23:56.106Z,16.60
2018-04-15T10:26:24.926Z,16.80
2018-04-15T10:28:54.726Z,16.90
2018-04-15T10:31:23.551Z,17.00
2018-04-15T10:33:51.609Z,16.90
2018-04-15T10:36:19.650Z,17.00
2018-04-15T10:38:47.759Z,17.20
2018-04-15T10:41:15.801Z,17.40
2018-04-15T10:43:43.908Z,17.50
2018-04-15T10:46:11.969Z,17.60
2018-04-15T10:48:40.017Z,17.80
2018-04-15T10:51:08.875Z,17.80
2018-04-15T10:53:36.912Z,17.80
2018-04-15T10:56:05.748Z,18.00
2018-04-15T10:58:33.804Z,18.00
2018-04-15T11:01:02.623Z,18.20
2018-04-15T11:03:30.699Z,18.10
2018-04-15T11:05:58.731Z,18.20
2018-04-15T11:08:26.800Z,18.30
2018-04-15T11:10:55.648Z,18.60
2018-04-15T11:13:24.459Z,18.70
2018-04-15T11:15:53.285Z,18.70
2018-04-15T11:18:21.323Z,18.60
2018-04-15T11:20:49.368Z,18.70
2018-04-15T11:23:17.427Z,18.70
2018-04-15T11:25:45.487Z,18.70
2018-04-15T11:28:14.323Z,19.10
2018-04-15T11:30:42.395Z,19.10
2018-04-15T11:33:10.447Z,19.20
2018-04-15T11:35:38.513Z,19.10
2018-04-15T11:38:07.415Z,19.10
2018-04-15T11:40:35.479Z,19.10
2018-04-15T11:43:03.533Z,19.30
2018-04-15T11:45:31.597Z,19.30
2018-04-15T11:48:00.452Z,19.80
2018-04-15T11:50:28.487Z,19.70
2018-04-15T11:52:57.311Z,20.10
2018-04-15T11:55:25.359Z,20.10
2018-04-15T11:57:53.462Z,20.20
2018-04-15T12:00:22.275Z,20.50
2018-04-15T12:02:50.340Z,20.40
2018-04-15T12:05:19.167Z,21.00
2018-04-15T12:07:47.208Z,21.00
2018-04-15T12:10:15.314Z,21.00
2018-04-15T12:12:43.439Z,21.30
2018-04-15T12:15:11.484Z,21.10
2018-04-15T12:17:40.314Z,21.20
2018-04-15T12:20:08.351Z,21.10
2018-04-15T12:22:37.236Z,21.40
2018-04-15T12:25:05.299Z,21.40
2018-04-15T12:27:33.355Z,21.70
2018-04-15T12:30:02.352Z,22.00
2018-04-15T12:32:30.404Z,22.10
2018-04-15T12:34:59.981Z,22.20
2018-04-15T12:37:28.020Z,22.20
2018-04-15T12:39:56.151Z,22.20
2018-04-15T12:42:24.207Z,22.80
2018-04-15T12:44:53.007Z,23.70
2018-04-15T12:47:21.076Z,23.70
2018-04-15T12:49:49.128Z,23.40
2018-04-15T12:52:17.184Z,22.80
2018-04-15T12:54:45.256Z,23.00
2018-04-15T12:57:13.308Z,23.40
2018-04-15T12:59:41.358Z,23.90
2018-04-15T13:02:09.415Z,23.70
2018-04-15T13:04:37.483Z,23.20
2018-04-15T13:07:06.287Z,22.80
2018-04-15T13:09:35.218Z,22.70
2018-04-15T13:12:03.271Z,22.70
2018-04-15T13:14:32.091Z,23.00
2018-04-15T13:17:00.175Z,23.00
2018-04-15T13:19:28.216Z,23.40
2018-04-15T13:21:57.775Z,23.20
2018-04-15T13:24:25.843Z,23.20
2018-04-15T13:26:54.652Z,23.20
2018-04-15T13:29:22.713Z,23.20
2018-04-15T13:31:50.743Z,23.30
2018-04-15T13:34:18.809Z,23.70
2018-04-15T13:36:46.868Z,24.50
2018-04-15T13:39:14.915Z,24.70
2018-04-15T13:41:42.984Z,24.50
2018-04-15T13:44:11.019Z,23.90
2018-04-15T13:46:39.843Z,23.60
2018-04-15T13:49:07.904Z,23.50
2018-04-15T13:51:35.949Z,23.50
2018-04-15T13:54:04.009Z,23.60
2018-04-15T13:56:32.044Z,23.80
2018-04-15T13:59:00.098Z,23.30
2018-04-15T14:01:28.167Z,23.20
2018-04-15T14:03:56.207Z,22.90
2018-04-15T14:06:25.031Z,23.50
2018-04-15T14:08:53.075Z,23.50
2018-04-15T14:11:21.136Z,23.70
2018-04-15T14:13:49.183Z,24.00
2018-04-15T14:16:17.215Z,24.70
2018-04-15T14:18:45.272Z,24.90
2018-04-15T14:21:13.311Z,25.00
2018-04-15T14:23:42.140Z,24.60
2018-04-15T14:26:10.253Z,24.60
2018-04-15T14:28:38.317Z,25.10
2018-04-15T14:31:06.364Z,25.60
2018-04-15T14:33:34.404Z,25.60
2018-04-15T14:36:02.457Z,26.00
2018-04-15T14:38:30.504Z,25.60
2018-04-15T14:40:58.559Z,25.20
2018-04-15T14:43:26.600Z,24.30
2018-04-15T14:45:55.435Z,23.30
2018-04-15T14:48:23.490Z,23.30
2018-04-15T14:50:51.528Z,23.30
2018-04-15T14:53:19.583Z,23.10
2018-04-15T14:55:47.647Z,23.00
2018-04-15T14:58:16.465Z,23.20
2018-04-15T15:00:44.530Z,23.10
2018-04-15T15:03:13.340Z,23.70
2018-04-15T15:05:41.387Z,23.70
2018-04-15T15:08:09.436Z,23.60
2018-04-15T15:10:37.491Z,23.50
2018-04-15T15:13:05.532Z,23.50
2018-04-15T15:15:33.814Z,23.70
2018-04-15T15:18:01.847Z,24.10
2018-04-15T15:20:30.837Z,24.90
2018-04-15T15:22:59.656Z,25.00
2018-04-15T15:25:27.700Z,24.90
2018-04-15T15:27:55.755Z,24.90
2018-04-15T15:30:23.820Z,24.60
2018-04-15T15:32:51.884Z,24.10
2018-04-15T15:35:19.928Z,23.80
2018-04-15T15:37:47.979Z,23.60
2018-04-15T15:40:16.023Z,23.30
2018-04-15T15:42:44.839Z,22.80
2018-04-15T15:45:12.882Z,22.80
2018-04-15T15:47:42.451Z,22.80
2018-04-15T15:50:10.507Z,22.80
2018-04-15T15:52:39.322Z,22.20
2018-04-15T15:55:07.393Z,22.10
2018-04-15T15:57:36.207Z,22.20
2018-04-15T16:00:04.279Z,22.10
2018-04-15T16:02:33.083Z,21.90
2018-04-15T16:05:01.921Z,21.80
2018-04-15T16:07:29.964Z,21.70
2018-04-15T16:09:58.787Z,21.40
2018-04-15T16:12:26.867Z,21.30
2018-04-15T16:14:54.908Z,21.40
2018-04-15T16:17:22.975Z,21.40
2018-04-15T16:19:51.022Z,21.50
2018-04-15T16:22:19.091Z,21.50
2018-04-15T16:24:47.925Z,21.60
2018-04-15T16:27:15.960Z,21.60
2018-04-15T16:29:44.032Z,21.70
2018-04-15T16:32:12.077Z,21.80
2018-04-15T16:34:40.143Z,21.60
2018-04-15T16:37:08.200Z,21.40
2018-04-15T16:39:36.239Z,21.40
2018-04-15T16:42:04.308Z,21.40
2018-04-15T16:44:32.351Z,21.40
2018-04-15T16:47:01.192Z,21.30
2018-04-15T16:49:29.251Z,21.20
2018-04-15T16:51:58.113Z,21.20
2018-04-15T16:54:26.216Z,21.20
2018-04-15T16:56:54.255Z,21.20
2018-04-15T16:59:22.314Z,21.10
2018-04-15T17:01:50.372Z,21.00
2018-04-15T17:04:19.220Z,20.90
2018-04-15T17:06:47.276Z,20.80
2018-04-15T17:09:16.139Z,20.30
2018-04-15T17:11:44.200Z,20.30
2018-04-15T17:14:12.311Z,20.20
2018-04-15T17:16:40.400Z,20.20
2018-04-15T17:19:08.447Z,20.00
2018-04-15T17:21:36.491Z,20.10
2018-04-15T17:24:05.314Z,19.90
2018-04-15T17:26:33.364Z,19.90
2018-04-15T17:29:02.952Z,19.80
2018-04-15T17:31:31.005Z,19.80
2018-04-15T17:33:59.077Z,19.80
2018-04-15T17:36:27.893Z,19.70
2018-04-15T17:38:55.943Z,19.60
2018-04-15T17:41:25.691Z,19.60
2018-04-15T17:43:53.764Z,19.50
2018-04-15T17:46:22.590Z,19.50
2018-04-15T17:48:50.658Z,19.40
2018-04-15T17:51:19.475Z,19.30
2018-04-15T17:53:48.467Z,19.30
2018-04-15T17:56:16.571Z,19.20
2018-04-15T17:58:44.629Z,19.20
2018-04-15T18:01:13.452Z,19.00
2018-04-15T18:03:41.523Z,18.90
2018-04-15T18:06:10.323Z,18.90
2018-04-15T18:08:38.383Z,18.80
2018-04-15T18:11:06.433Z,18.80
2018-04-15T18:13:34.488Z,18.70
2018-04-15T18:16:02.561Z,18.70
2018-04-15T18:18:30.616Z,18.60
2018-04-15T18:20:59.447Z,18.40
2018-04-15T18:23:27.484Z,18.30
2018-04-15T18:25:56.318Z,18.20
2018-04-15T18:28:25.244Z,18.20
2018-04-15T18:30:53.298Z,18.10
2018-04-15T18:33:21.363Z,18.10
2018-04-15T18:35:49.403Z,18.00
2018-04-15T18:38:17.472Z,18.00
2018-04-15T18:40:45.532Z,17.90
2018-04-15T18:43:13.583Z,17.90
2018-04-15T18:45:41.615Z,17.80
2018-04-15T18:48:09.690Z,17.80
2018-04-15T18:50:38.512Z,17.80
2018-04-15T18:53:06.548Z,17.70
2018-04-15T18:55:34.615Z,17.80
2018-04-15T18:58:02.664Z,17.70
2018-04-15T19:00:30.799Z,17.70
2018-04-15T19:02:58.864Z,17.70
2018-04-15T19:05:26.905Z,18.10
2018-04-15T19:07:55.741Z,17.50
2018-04-15T19:10:23.800Z,17.50
2018-04-15T19:12:52.624Z,17.40
2018-04-15T19:15:20.668Z,17.40
2018-04-15T19:17:49.500Z,17.40
2018-04-15T19:20:17.544Z,17.40
2018-04-15T19:22:45.628Z,17.30
2018-04-15T19:25:13.691Z,16.20
2018-04-15T19:27:41.739Z,17.30
2018-04-15T19:30:09.807Z,17.20
2018-04-15T19:32:37.857Z,17.30
2018-04-15T19:35:05.911Z,17.20
2018-04-15T19:37:33.951Z,17.10
2018-04-15T19:40:02.795Z,17.10
2018-04-15T19:42:30.850Z,17.00
2018-04-15T19:44:58.900Z,17.10
2018-04-15T19:47:26.951Z,17.10
2018-04-15T19:49:55.022Z,17.10
2018-04-15T19:52:23.071Z,17.10
2018-04-15T19:54:51.916Z,16.90
2018-04-15T19:57:19.960Z,16.80
2018-04-15T19:59:48.795Z,16.70
2018-04-15T20:02:16.885Z,16.70
2018-04-15T20:04:44.985Z,16.70
2018-04-15T20:07:13.021Z,16.70
2018-04-15T20:09:41.083Z,16.70
2018-04-15T20:12:09.171Z,16.70
2018-04-15T20:14:37.203Z,16.70
2018-04-15T20:17:05.275Z,16.70
2018-04-15T20:19:33.347Z,16.70
2018-04-15T20:22:01.398Z,16.60
2018-04-15T20:24:30.959Z,16.10
2018-04-15T20:26:59.066Z,16.20
2018-04-15T20:29:27.902Z,16.00
2018-04-15T20:31:55.953Z,16.00
2018-04-15T20:34:24.000Z,16.00
2018-04-15T20:36:52.165Z,15.90
2018-04-15T20:39:20.201Z,16.00
2018-04-15T20:41:48.254Z,16.00
2018-04-15T20:44:17.072Z,16.10
2018-04-15T20:46:45.124Z,16.00
2018-04-15T20:49:13.228Z,16.00
2018-04-15T20:51:41.295Z,16.00
2018-04-15T20:54:10.136Z,16.00
2018-04-15T20:56:38.204Z,16.00
2018-04-15T20:59:06.276Z,16.10
2018-04-15T21:01:35.091Z,16.00
2018-04-15T21:04:03.127Z,16.00
2018-04-15T21:06:31.212Z,16.00
2018-04-15T21:09:00.785Z,15.90
2018-04-15T21:11:28.835Z,15.90
2018-04-15T21:13:57.652Z,16.00
2018-04-15T21:16:26.455Z,15.90
2018-04-15T21:18:54.549Z,15.80
2018-04-15T21:21:22.638Z,15.80
2018-04-15T21:23:50.679Z,15.90
2018-04-15T21:26:18.750Z,15.90
2018-04-15T21:28:47.680Z,15.90
2018-04-15T21:31:16.502Z,15.70
2018-04-15T21:33:44.535Z,15.70
2018-04-15T21:36:12.587Z,15.80
2018-04-15T21:38:40.643Z,15.80
2018-04-15T21:41:09.447Z,15.60
2018-04-15T21:43:38.270Z,15.60
2018-04-15T21:46:06.303Z,15.50
2018-04-15T21:48:34.380Z,15.60
2018-04-15T21:51:02.415Z,15.60
2018-04-15T21:53:30.472Z,15.60
2018-04-15T21:55:59.291Z,15.60
2018-04-15T21:58:27.712Z,15.60
2018-04-15T22:00:55.759Z,15.60
2018-04-15T22:03:24.563Z,15.70
2018-04-15T22:05:53.384Z,15.60
2018-04-15T22:08:21.445Z,15.50
2018-04-15T22:10:50.240Z,15.60
2018-04-15T22:13:19.063Z,15.60
2018-04-15T22:15:47.095Z,15.50
2018-04-15T22:18:15.172Z,15.60
2018-04-15T22:20:43.232Z,15.60
2018-04-15T22:23:11.274Z,15.50
2018-04-15T22:25:40.105Z,15.40
2018-04-15T22:28:08.142Z,15.40
2018-04-15T22:30:36.192Z,15.40
2018-04-15T22:33:04.239Z,15.40
2018-04-15T22:35:33.053Z,15.40
2018-04-15T22:38:01.107Z,15.30
2018-04-15T22:40:29.908Z,15.40
2018-04-15T22:42:57.961Z,15.40
2018-04-15T22:45:26.008Z,15.50
2018-04-15T22:47:59.839Z,15.40
2018-04-15T22:50:33.638Z,15.40
2018-04-15T22:53:01.691Z,15.10
2018-04-15T22:55:29.756Z,15.10
2018-04-15T22:57:57.799Z,15.10
2018-04-15T23:00:25.859Z,15.10
2018-04-15T23:02:54.659Z,15.10
2018-04-15T23:05:23.488Z,15.00
2018-04-15T23:10:13.506Z,15.20
2018-04-15T23:12:42.324Z,15.10
2018-04-15T23:15:10.360Z,15.00
2018-04-15T23:17:38.415Z,14.80
2018-04-15T23:20:06.474Z,14.80
2018-04-15T23:22:35.367Z,14.80
2018-04-15T23:25:03.403Z,14.70
2018-04-15T23:27:31.468Z,14.70
2018-04-15T23:29:59.531Z,14.70
2018-04-15T23:32:27.581Z,14.70
2018-04-15T23:34:56.375Z,14.70
2018-04-15T23:37:25.216Z,14.70
2018-04-15T23:39:53.259Z,14.70
2018-04-15T23:42:21.320Z,14.70
2018-04-15T23:44:49.367Z,14.60
2018-04-15T23:47:17.415Z,14.50
2018-04-15T23:49:46.230Z,14.40
2018-04-15T23:52:15.023Z,14.40
2018-04-15T23:54:43.859Z,14.50
2018-04-15T23:57:11.899Z,14.40
2018-04-15T23:59:39.947Z,14.40
